Time;durP1;ratioP1;P1;durP2;ratioP2;P2;SDS_P1;SDS_P2;PMS_P1;PMS_P2;Temp;Humidity;BMP_temperature;BMP_pressure;BME280_temperature;BME280_humidity;BME280_pressure;Samples;Min_cycle;Max_cycle;Signal;HPM_P1;HPM_P2
2023/04/23 00:00:26;;;;;;;5.70;5.23;;;13.80;99.90;;;;;;4935983;29;20218;-63
2023/04/23 00:02:54;;;;;;;5.47;5.07;;;13.70;99.90;;;;;;4940838;29;20221;-62
2023/04/23 00:05:28;;;;;;;6.57;5.90;;;13.70;99.90;;;;;;4943348;29;20672;-63
2023/04/23 00:07:56;;;;;;;6.43;5.63;;;13.60;99.90;;;;;;4934999;29;20202;-63
2023/04/23 00:10:23;;;;;;;6.10;5.50;;;13.60;99.90;;;;;;4946367;29;20252;-62
2023/04/23 00:12:51;;;;;;;5.87;5.47;;;13.60;99.90;;;;;;4939321;29;20296;-62
2023/04/23 00:15:20;;;;;;;6.23;5.60;;;13.50;99.90;;;;;;4941999;29;20722;-62
2023/04/23 00:17:48;;;;;;;9.60;6.90;;;13.50;99.90;;;;;;4949280;29;20296;-62
2023/04/23 00:20:15;;;;;;;6.10;5.33;;;13.60;99.90;;;;;;4941088;29;20276;-62
2023/04/23 00:22:44;;;;;;;6.70;6.20;;;13.50;99.90;;;;;;4940928;29;20280;-62
2023/04/23 00:25:11;;;;;;;6.33;5.83;;;13.40;99.90;;;;;;4955110;29;20261;-62
2023/04/23 00:27:38;;;;;;;6.97;6.47;;;13.30;99.90;;;;;;4946680;29;20261;-62
2023/04/23 00:30:07;;;;;;;7.03;6.43;;;13.30;99.90;;;;;;4946527;29;20205;-62
2023/04/23 00:32:34;;;;;;;7.07;6.50;;;13.20;99.90;;;;;;4916387;29;1120856;-62
2023/04/23 00:35:01;;;;;;;8.83;6.67;;;13.30;99.90;;;;;;4936156;29;20576;-62
2023/04/23 00:37:28;;;;;;;7.03;6.37;;;13.30;99.90;;;;;;4944569;29;20589;-62
2023/04/23 00:39:57;;;;;;;6.33;5.83;;;13.40;99.90;;;;;;4939380;29;20795;-62
2023/04/23 00:42:24;;;;;;;6.53;5.93;;;13.30;99.90;;;;;;4943901;29;20221;-62
2023/04/23 00:44:52;;;;;;;6.40;5.90;;;13.30;99.90;;;;;;4936244;29;20676;-62
2023/04/23 00:47:19;;;;;;;6.53;6.13;;;13.30;99.90;;;;;;4937744;29;20206;-62
2023/04/23 00:49:47;;;;;;;6.47;5.87;;;13.30;99.90;;;;;;4941346;29;20638;-62
2023/04/23 00:52:14;;;;;;;6.23;5.73;;;13.30;99.90;;;;;;4935081;29;20288;-63
2023/04/23 00:54:41;;;;;;;5.53;5.13;;;13.20;99.90;;;;;;4936468;29;20205;-62
2023/04/23 00:57:10;;;;;;;7.83;5.77;;;13.00;99.90;;;;;;4946104;29;20210;-62
2023/04/23 00:59:37;;;;;;;6.37;5.77;;;13.00;99.90;;;;;;4935893;29;20209;-62
2023/04/23 01:02:04;;;;;;;6.37;5.63;;;12.90;99.90;;;;;;4933718;29;20787;-62
2023/04/23 01:04:32;;;;;;;6.13;5.73;;;12.90;99.90;;;;;;4934255;29;20210;-62
2023/04/23 01:07:00;;;;;;;5.40;4.97;;;12.90;99.90;;;;;;4944313;29;20213;-62
2023/04/23 01:09:27;;;;;;;7.27;6.60;;;12.90;99.90;;;;;;4955500;29;20216;-63
2023/04/23 01:11:54;;;;;;;6.40;5.77;;;12.90;99.90;;;;;;4951112;29;20203;-62
2023/04/23 01:14:23;;;;;;;6.77;6.27;;;13.00;99.90;;;;;;4936034;29;20213;-63
2023/04/23 01:16:51;;;;;;;5.93;5.53;;;13.10;99.90;;;;;;4933922;29;20300;-62
2023/04/23 01:19:18;;;;;;;6.57;5.97;;;13.00;99.90;;;;;;4945127;29;20212;-62
2023/04/23 01:21:45;;;;;;;6.00;5.50;;;12.90;99.90;;;;;;4953555;29;20235;-63
2023/04/23 01:24:14;;;;;;;5.63;5.33;;;12.80;99.90;;;;;;4950792;29;20678;-62
2023/04/23 01:26:41;;;;;;;6.53;5.70;;;12.70;99.90;;;;;;4933385;29;20206;-63
2023/04/23 01:29:08;;;;;;;6.23;5.70;;;12.70;99.90;;;;;;4941550;29;20260;-62
2023/04/23 01:31:36;;;;;;;6.63;5.77;;;12.70;99.90;;;;;;4947676;29;20205;-62
2023/04/23 01:34:03;;;;;;;5.70;5.20;;;12.70;99.90;;;;;;4949715;29;20253;-62
2023/04/23 01:36:31;;;;;;;5.37;4.90;;;12.70;99.90;;;;;;4935581;29;20252;-62
2023/04/23 01:38:58;;;;;;;6.90;5.97;;;12.70;99.90;;;;;;4942010;29;20222;-62
2023/04/23 01:41:26;;;;;;;6.50;5.90;;;12.70;99.90;;;;;;4939593;29;20219;-62
2023/04/23 01:43:53;;;;;;;5.33;4.83;;;12.70;99.90;;;;;;4938816;29;20244;-62
2023/04/23 01:46:21;;;;;;;5.63;5.10;;;12.70;99.90;;;;;;4934606;29;20206;-62
2023/04/23 01:48:48;;;;;;;5.37;4.97;;;12.80;99.90;;;;;;4935404;29;20212;-62
2023/04/23 01:51:15;;;;;;;6.83;6.03;;;12.70;99.90;;;;;;4935115;29;20206;-62
2023/04/23 01:53:42;;;;;;;5.70;5.20;;;12.60;99.90;;;;;;4933840;29;20224;-62
2023/04/23 01:56:10;;;;;;;6.37;5.77;;;12.60;99.90;;;;;;4941361;29;20635;-62
2023/04/23 01:58:38;;;;;;;5.40;4.93;;;12.60;99.90;;;;;;4942909;29;20202;-62
2023/04/23 02:01:05;;;;;;;5.27;4.53;;;12.50;99.90;;;;;;4935151;29;20258;-62
2023/04/23 02:03:33;;;;;;;5.57;5.10;;;12.60;99.90;;;;;;4933175;29;20388;-62
2023/04/23 02:06:00;;;;;;;5.97;5.00;;;12.60;99.90;;;;;;4935083;29;20197;-62
2023/04/23 02:08:28;;;;;;;5.20;4.73;;;12.50;99.90;;;;;;4953845;29;20260;-62
2023/04/23 02:10:55;;;;;;;6.87;5.10;;;12.50;99.90;;;;;;4946337;29;20564;-62
2023/04/23 02:13:22;;;;;;;6.43;4.80;;;12.50;99.90;;;;;;4937262;29;20224;-62
2023/04/23 02:15:50;;;;;;;7.30;6.60;;;12.50;99.90;;;;;;4933809;29;20312;-62
2023/04/23 02:18:17;;;;;;;8.23;5.93;;;12.50;99.90;;;;;;4940149;29;20204;-62
2023/04/23 02:20:44;;;;;;;6.33;5.83;;;12.50;99.90;;;;;;4948189;29;20267;-62
2023/04/23 02:23:12;;;;;;;5.00;4.63;;;12.50;99.90;;;;;;4953590;29;20238;-62
2023/04/23 02:25:39;;;;;;;7.20;6.60;;;12.50;99.90;;;;;;4954022;29;20298;-62
2023/04/23 02:28:07;;;;;;;5.60;5.20;;;12.50;99.90;;;;;;4949137;29;20758;-62
2023/04/23 02:30:34;;;;;;;5.17;4.70;;;12.50;99.90;;;;;;4936921;29;20236;-62
2023/04/23 02:33:03;;;;;;;4.33;4.07;;;12.50;99.90;;;;;;4944956;29;20291;-62
2023/04/23 02:35:31;;;;;;;5.30;4.73;;;12.50;99.90;;;;;;4941490;29;20629;-62
2023/04/23 02:37:58;;;;;;;4.90;4.60;;;12.50;99.90;;;;;;4938567;29;20239;-62
2023/04/23 02:40:25;;;;;;;5.27;4.77;;;12.60;99.90;;;;;;4948096;29;20202;-62
2023/04/23 02:42:52;;;;;;;5.47;4.97;;;12.60;99.90;;;;;;4930681;29;20656;-62
2023/04/23 02:45:19;;;;;;;4.83;4.47;;;12.60;99.90;;;;;;4944359;29;20267;-62
2023/04/23 02:47:46;;;;;;;6.17;5.57;;;12.60;99.90;;;;;;4953540;29;20208;-62
2023/04/23 02:50:15;;;;;;;4.90;4.37;;;12.70;99.90;;;;;;4942843;29;20264;-62
2023/04/23 02:52:42;;;;;;;5.47;4.83;;;12.70;99.90;;;;;;4949160;29;20226;-62
2023/04/23 02:55:09;;;;;;;4.83;4.53;;;12.60;99.90;;;;;;4941067;29;20208;-62
2023/04/23 02:57:37;;;;;;;5.90;5.40;;;12.60;99.90;;;;;;4942300;29;20207;-62
2023/04/23 03:00:06;;;;;;;4.93;4.53;;;12.50;99.90;;;;;;4933190;29;20910;-62
2023/04/23 03:02:33;;;;;;;5.43;5.00;;;12.50;99.90;;;;;;4933592;29;20226;-62
2023/04/23 03:05:00;;;;;;;5.87;5.37;;;12.50;99.90;;;;;;4935342;29;20660;-62
2023/04/23 03:07:28;;;;;;;7.40;6.73;;;12.40;99.90;;;;;;4933622;29;20261;-63
2023/04/23 03:09:55;;;;;;;5.80;5.30;;;12.40;99.90;;;;;;4940992;29;20734;-64
2023/04/23 03:12:22;;;;;;;7.30;6.67;;;12.40;99.90;;;;;;4939733;29;20273;-63
2023/04/23 03:14:49;;;;;;;6.53;5.93;;;12.40;99.90;;;;;;4941817;29;20623;-63
2023/04/23 03:17:16;;;;;;;6.30;5.80;;;12.40;99.90;;;;;;4951586;29;20689;-63
2023/04/23 03:19:43;;;;;;;8.70;6.20;;;12.40;99.90;;;;;;4940623;29;20237;-63
2023/04/23 03:22:10;;;;;;;6.50;6.10;;;12.20;99.90;;;;;;4940941;29;20235;-63
2023/04/23 03:24:38;;;;;;;7.47;6.77;;;12.20;99.90;;;;;;4944670;29;20262;-63
2023/04/23 03:27:05;;;;;;;7.37;5.80;;;12.00;99.90;;;;;;4939041;29;20635;-63
2023/04/23 03:29:32;;;;;;;6.30;5.80;;;11.90;99.90;;;;;;4944970;29;20204;-63
2023/04/23 03:31:59;;;;;;;5.97;5.57;;;11.80;99.90;;;;;;4939546;29;20201;-62
2023/04/23 03:34:26;;;;;;;5.50;5.20;;;11.80;99.90;;;;;;4931566;29;20250;-62
2023/04/23 03:36:53;;;;;;;4.83;4.43;;;11.80;99.90;;;;;;4939668;29;20211;-62
2023/04/23 03:39:20;;;;;;;5.53;5.00;;;11.80;99.90;;;;;;4938264;29;20216;-62
2023/04/23 03:41:49;;;;;;;6.30;5.27;;;11.90;99.90;;;;;;4939362;29;20273;-62
2023/04/23 03:44:16;;;;;;;5.37;4.73;;;11.90;99.90;;;;;;4934171;29;20648;-62
2023/04/23 03:46:43;;;;;;;5.07;4.10;;;11.90;99.90;;;;;;4938538;29;20212;-63
2023/04/23 03:49:10;;;;;;;4.93;4.43;;;12.00;99.90;;;;;;4944548;29;20309;-62
2023/04/23 03:51:37;;;;;;;7.03;4.23;;;11.90;99.90;;;;;;4946680;29;20248;-62
2023/04/23 03:54:04;;;;;;;3.73;3.47;;;11.90;99.90;;;;;;4943508;29;20265;-62
2023/04/23 03:56:31;;;;;;;4.57;4.23;;;11.90;99.90;;;;;;4929914;29;20667;-62
2023/04/23 03:58:59;;;;;;;3.97;3.67;;;11.90;99.90;;;;;;4941728;29;20199;-63
2023/04/23 04:01:26;;;;;;;4.30;3.77;;;11.80;99.90;;;;;;4948153;29;20667;-62
2023/04/23 04:03:54;;;;;;;4.57;3.83;;;11.80;99.90;;;;;;4947903;29;20220;-62
2023/04/23 04:06:21;;;;;;;6.73;3.50;;;11.80;99.90;;;;;;4953244;29;20219;-62
2023/04/23 04:08:47;;;;;;;4.83;4.53;;;11.80;99.90;;;;;;4936961;29;20631;-62
2023/04/23 04:11:14;;;;;;;4.20;3.83;;;11.70;99.90;;;;;;4932515;29;20208;-62
2023/04/23 04:13:41;;;;;;;5.97;5.37;;;11.70;99.90;;;;;;4948134;29;20216;-62
2023/04/23 04:16:10;;;;;;;7.10;6.37;;;11.70;99.90;;;;;;4942708;29;20560;-62
2023/04/23 04:18:38;;;;;;;7.57;6.87;;;11.60;99.90;;;;;;4943695;29;20264;-62
2023/04/23 04:21:05;;;;;;;5.70;5.30;;;11.60;99.90;;;;;;4953018;29;20205;-62
2023/04/23 04:23:32;;;;;;;5.27;4.77;;;11.60;99.90;;;;;;4955596;29;20717;-62
2023/04/23 04:25:59;;;;;;;6.43;3.90;;;11.60;99.90;;;;;;4948448;29;20201;-62
2023/04/23 04:28:26;;;;;;;4.27;3.87;;;11.60;99.90;;;;;;4947839;29;20208;-62
2023/04/23 04:30:56;;;;;;;2.77;2.67;;;11.60;99.90;;;;;;4942905;29;20259;-62
2023/04/23 04:33:24;;;;;;;3.67;3.47;;;11.60;99.90;;;;;;4942177;29;20271;-62
2023/04/23 04:35:51;;;;;;;5.20;3.47;;;11.60;99.90;;;;;;4936557;29;20316;-62
2023/04/23 04:38:18;;;;;;;3.60;3.20;;;11.60;99.90;;;;;;4943264;29;20208;-63
2023/04/23 04:40:45;;;;;;;4.93;3.63;;;11.50;99.90;;;;;;4949936;29;20197;-63
2023/04/23 04:43:12;;;;;;;5.03;3.37;;;11.50;99.90;;;;;;4946038;29;20236;-62
2023/04/23 04:45:39;;;;;;;3.17;3.07;;;11.50;99.90;;;;;;4934282;29;20212;-62
2023/04/23 04:48:06;;;;;;;3.40;3.20;;;11.50;99.90;;;;;;4944713;29;20271;-62
2023/04/23 04:50:35;;;;;;;3.00;2.80;;;11.50;99.90;;;;;;4940952;29;20197;-63
2023/04/23 04:53:02;;;;;;;2.87;2.57;;;11.50;99.90;;;;;;4936726;29;20220;-62
2023/04/23 04:55:29;;;;;;;4.20;3.53;;;11.50;99.90;;;;;;4928354;29;20259;-62
2023/04/23 04:57:56;;;;;;;2.87;2.67;;;11.40;99.90;;;;;;4936325;29;20223;-62
2023/04/23 05:00:28;;;;;;;2.87;2.60;;;11.40;99.90;;;;;;4943312;29;20210;-62
2023/04/23 05:02:55;;;;;;;2.37;2.27;;;11.40;99.90;;;;;;4950519;29;20691;-63
2023/04/23 05:05:24;;;;;;;2.80;2.53;;;11.40;99.90;;;;;;4955483;29;20248;-63
2023/04/23 05:07:53;;;;;;;2.30;2.20;;;11.40;99.90;;;;;;4945904;29;20205;-62
2023/04/23 05:10:20;;;;;;;2.00;1.90;;;11.30;99.90;;;;;;4938615;29;20212;-62
2023/04/23 05:12:47;;;;;;;7.00;3.63;;;11.30;99.90;;;;;;4935946;29;20225;-62
2023/04/23 05:15:15;;;;;;;2.37;2.27;;;11.30;99.90;;;;;;4936513;29;20682;-62
2023/04/23 05:17:42;;;;;;;1.90;1.80;;;11.30;99.90;;;;;;4947027;29;20231;-62
2023/04/23 05:20:11;;;;;;;2.40;2.20;;;11.30;99.90;;;;;;4951107;29;20205;-62
2023/04/23 05:22:38;;;;;;;3.67;1.40;;;11.40;99.90;;;;;;4946375;29;20271;-62
2023/04/23 05:25:07;;;;;;;1.20;1.20;;;11.40;99.90;;;;;;4944781;29;20754;-62
2023/04/23 05:27:34;;;;;;;3.03;1.90;;;11.40;99.90;;;;;;4938681;29;20207;-63
2023/04/23 05:30:01;;;;;;;2.30;2.10;;;11.30;99.90;;;;;;4944749;29;20619;-62
2023/04/23 05:32:28;;;;;;;2.00;1.70;;;11.40;99.90;;;;;;4942875;29;20230;-62
2023/04/23 05:34:56;;;;;;;2.27;1.70;;;11.40;99.90;;;;;;4942538;29;20207;-62
2023/04/23 05:37:23;;;;;;;2.63;1.53;;;11.40;99.90;;;;;;4945736;29;20276;-62
2023/04/23 05:39:50;;;;;;;3.10;1.77;;;11.40;99.90;;;;;;4954613;29;20267;-62
2023/04/23 05:42:21;;;;;;;1.53;1.43;;;11.40;99.90;;;;;;4942773;29;20317;-62
2023/04/23 05:44:48;;;;;;;1.80;1.70;;;11.40;99.90;;;;;;4934336;29;20208;-63
2023/04/23 05:47:15;;;;;;;1.77;1.70;;;11.40;99.90;;;;;;4933173;29;20207;-63
2023/04/23 05:49:42;;;;;;;1.80;1.70;;;11.40;99.90;;;;;;4940743;29;20636;-62
2023/04/23 05:52:09;;;;;;;2.20;2.10;;;11.50;99.90;;;;;;4951993;29;20228;-62
2023/04/23 05:54:36;;;;;;;3.90;1.43;;;11.50;99.90;;;;;;4954215;29;20233;-63
2023/04/23 05:57:03;;;;;;;1.50;1.40;;;11.50;99.90;;;;;;4954505;29;20268;-62
2023/04/23 05:59:32;;;;;;;1.70;1.60;;;11.50;99.90;;;;;;4941273;29;20694;-63
2023/04/23 06:01:59;;;;;;;1.97;1.90;;;11.50;99.90;;;;;;4935115;29;20969;-62
2023/04/23 06:04:26;;;;;;;2.73;2.60;;;11.50;99.90;;;;;;4925950;29;20297;-62
2023/04/23 06:06:53;;;;;;;2.67;2.27;;;11.60;99.90;;;;;;4937627;29;20290;-63
2023/04/23 06:09:20;;;;;;;2.33;2.23;;;11.60;99.90;;;;;;4936326;29;20208;-63
2023/04/23 06:11:49;;;;;;;2.50;2.40;;;11.60;99.90;;;;;;4951851;23;20263;-61
2023/04/23 06:14:16;;;;;;;3.27;2.97;;;11.60;99.90;;;;;;4926728;29;20260;-61
2023/04/23 06:16:45;;;;;;;3.33;3.10;;;11.60;99.90;;;;;;4932000;29;20209;-61
2023/04/23 06:19:12;;;;;;;2.57;2.47;;;11.60;99.90;;;;;;4928085;29;20227;-60
2023/04/23 06:21:39;;;;;;;2.60;2.50;;;11.60;99.90;;;;;;4924701;29;20277;-61
2023/04/23 06:24:07;;;;;;;3.60;2.90;;;11.60;99.90;;;;;;4931660;29;20228;-61
2023/04/23 06:26:34;;;;;;;2.43;2.33;;;11.70;99.90;;;;;;4925878;29;20235;-60
2023/04/23 06:29:01;;;;;;;3.80;3.53;;;11.70;99.90;;;;;;4931514;29;20236;-61
2023/04/23 06:31:28;;;;;;;4.97;4.77;;;11.80;99.90;;;;;;4930908;29;20225;-61
2023/04/23 06:33:57;;;;;;;4.80;4.60;;;11.80;99.90;;;;;;4930390;29;20223;-61
2023/04/23 06:36:25;;;;;;;3.53;3.40;;;11.90;99.90;;;;;;4932840;29;20208;-60
2023/04/23 06:38:52;;;;;;;3.17;2.97;;;12.00;99.90;;;;;;4933033;29;20202;-60
2023/04/23 06:41:21;;;;;;;3.23;3.03;;;12.00;99.90;;;;;;4933193;29;20228;-61
2023/04/23 06:43:48;;;;;;;6.23;4.53;;;12.00;99.90;;;;;;4933191;29;20225;-61
2023/04/23 06:46:15;;;;;;;2.63;2.43;;;12.10;99.90;;;;;;4927390;29;20206;-61
2023/04/23 06:48:42;;;;;;;3.10;2.87;;;12.20;99.90;;;;;;4933261;29;20833;-60
2023/04/23 06:51:11;;;;;;;3.33;3.03;;;12.20;99.90;;;;;;4923239;29;20249;-61
2023/04/23 06:53:38;;;;;;;12.40;8.00;;;12.20;99.90;;;;;;4932981;29;20198;-61
2023/04/23 06:56:06;;;;;;;5.07;4.57;;;12.20;99.90;;;;;;4932411;29;20284;-60
2023/04/23 06:58:33;;;;;;;6.60;4.80;;;12.30;99.90;;;;;;4932990;29;20236;-60
2023/04/23 07:01:03;;;;;;;3.70;3.50;;;12.40;99.90;;;;;;4932548;29;20279;-61
2023/04/23 07:03:30;;;;;;;3.00;2.77;;;12.40;99.90;;;;;;4931667;29;20256;-60
2023/04/23 07:05:57;;;;;;;3.30;2.67;;;12.50;99.90;;;;;;4930562;29;20282;-61
2023/04/23 07:08:26;;;;;;;3.83;3.53;;;12.50;99.90;;;;;;4930782;29;20213;-60
2023/04/23 07:10:53;;;;;;;3.93;3.53;;;12.60;99.90;;;;;;4931090;29;20314;-60
2023/04/23 07:13:20;;;;;;;4.10;3.30;;;12.60;99.90;;;;;;4924524;29;20248;-61
2023/04/23 07:15:47;;;;;;;1.93;1.83;;;12.50;99.90;;;;;;4930492;29;20583;-60
2023/04/23 07:18:14;;;;;;;1.87;1.77;;;12.50;99.90;;;;;;4930668;29;20304;-60
2023/04/23 07:20:41;;;;;;;4.50;2.27;;;12.50;99.90;;;;;;4935511;29;20260;-60
2023/04/23 07:23:08;;;;;;;3.03;2.30;;;12.70;99.90;;;;;;4935635;29;20224;-61
2023/04/23 07:25:37;;;;;;;3.00;2.80;;;12.70;99.90;;;;;;4934180;29;20208;-60
2023/04/23 07:28:04;;;;;;;1.90;1.80;;;12.60;99.90;;;;;;4933119;29;20204;-60
2023/04/23 07:30:31;;;;;;;1.30;1.30;;;12.70;99.90;;;;;;4935322;29;20202;-60
2023/04/23 07:32:58;;;;;;;2.17;2.07;;;12.80;99.90;;;;;;4934422;29;20220;-60
2023/04/23 07:35:26;;;;;;;1.63;1.53;;;13.00;99.90;;;;;;4932835;29;20209;-60
2023/04/23 07:37:56;;;;;;;1.37;1.37;;;13.00;99.90;;;;;;4931718;29;20212;-59
2023/04/23 07:40:24;;;;;;;1.17;1.17;;;13.00;99.90;;;;;;4934187;29;20763;-60
2023/04/23 07:42:52;;;;;;;1.17;1.13;;;13.00;99.90;;;;;;4933057;29;20272;-60
2023/04/23 07:45:19;;;;;;;1.20;1.20;;;13.10;99.90;;;;;;4935700;29;20253;-59
2023/04/23 07:47:47;;;;;;;1.10;1.10;;;13.20;99.90;;;;;;4935798;29;20217;-60
2023/04/23 07:50:14;;;;;;;1.63;1.53;;;13.40;99.90;;;;;;4932278;29;20593;-60
2023/04/23 07:52:41;;;;;;;1.43;1.37;;;13.40;99.90;;;;;;4931053;29;20228;-61
2023/04/23 07:55:09;;;;;;;1.37;1.37;;;13.50;99.90;;;;;;4935516;29;20269;-60
2023/04/23 07:57:36;;;;;;;1.40;1.40;;;13.50;99.90;;;;;;4934658;29;20202;-60
2023/04/23 08:00:08;;;;;;;1.70;1.57;;;13.60;99.90;;;;;;4928754;29;20598;-60
2023/04/23 08:02:35;;;;;;;1.47;1.47;;;13.60;99.90;;;;;;4928636;29;20213;-60
2023/04/23 08:05:02;;;;;;;2.47;1.40;;;13.50;99.90;;;;;;4933744;29;20229;-60
2023/04/23 08:07:29;;;;;;;1.83;1.60;;;13.60;99.90;;;;;;4933804;29;20206;-61
2023/04/23 08:10:01;;;;;;;2.73;1.37;;;13.70;99.90;;;;;;4940260;29;20578;-61
2023/04/23 08:12:29;;;;;;;2.50;1.57;;;13.90;99.90;;;;;;4935275;29;20230;-60
2023/04/23 08:14:56;;;;;;;2.07;1.97;;;14.10;99.90;;;;;;4933947;29;20196;-60
2023/04/23 08:17:26;;;;;;;1.77;1.67;;;14.40;99.90;;;;;;4935289;29;20221;-60
2023/04/23 08:19:54;;;;;;;3.13;2.23;;;14.30;99.90;;;;;;4935036;29;20210;-60
2023/04/23 08:22:24;;;;;;;1.87;1.77;;;14.50;99.90;;;;;;4935133;29;20539;-60
2023/04/23 08:24:51;;;;;;;1.57;1.47;;;14.50;99.90;;;;;;4935549;29;20236;-60
2023/04/23 08:27:21;;;;;;;1.53;1.53;;;14.70;99.90;;;;;;4935063;29;20365;-60
2023/04/23 08:29:48;;;;;;;1.17;1.07;;;14.90;99.90;;;;;;4927638;29;20245;-60
2023/04/23 08:32:15;;;;;;;2.77;1.27;;;15.10;99.90;;;;;;4931458;29;20229;-60
2023/04/23 08:34:44;;;;;;;1.73;1.60;;;15.30;99.90;;;;;;4933654;29;20581;-59
2023/04/23 08:37:11;;;;;;;1.90;1.67;;;15.40;99.90;;;;;;4935907;29;20234;-60
2023/04/23 08:39:37;;;;;;;1.80;1.73;;;15.50;99.90;;;;;;4930060;29;20209;-60
2023/04/23 08:42:11;;;;;;;2.63;1.50;;;15.70;99.90;;;;;;4932732;29;20237;-60
2023/04/23 08:44:40;;;;;;;1.30;1.20;;;15.90;99.90;;;;;;4932815;29;20222;-60
2023/04/23 08:47:10;;;;;;;2.27;1.60;;;16.00;99.90;;;;;;4930971;29;20209;-60
2023/04/23 08:49:45;;;;;;;2.40;1.50;;;16.30;99.90;;;;;;4927461;29;20214;-60
2023/04/23 08:52:17;;;;;;;2.60;1.20;;;16.30;99.90;;;;;;4932014;29;20221;-63
2023/04/23 08:54:49;;;;;;;1.00;1.00;;;16.50;99.90;;;;;;4931019;29;20222;-63
2023/04/23 08:57:20;;;;;;;1.27;1.20;;;16.70;99.90;;;;;;4930208;29;20216;-61
2023/04/23 08:59:47;;;;;;;1.27;1.25;;;16.60;99.90;;;;;;4928940;29;20545;-66
2023/04/23 09:02:16;;;;;;;1.40;1.30;;;16.90;99.90;;;;;;4933776;29;20230;-65
2023/04/23 09:04:46;;;;;;;1.13;1.13;;;17.10;99.90;;;;;;4932701;29;20225;-64
2023/04/23 09:07:14;;;;;;;1.30;1.30;;;17.00;99.90;;;;;;4930725;29;20245;-65
2023/04/23 09:09:41;;;;;;;2.63;1.03;;;16.90;99.90;;;;;;4932109;29;20286;-65
2023/04/23 09:12:09;;;;;;;1.23;1.23;;;17.80;99.90;;;;;;4930361;29;20715;-65
2023/04/23 09:14:37;;;;;;;1.37;1.37;;;18.60;99.90;;;;;;4932471;29;20289;-65
2023/04/23 09:17:04;;;;;;;1.20;1.10;;;19.00;99.90;;;;;;4928833;29;20198;-66
2023/04/23 09:19:31;;;;;;;0.90;0.90;;;19.00;99.90;;;;;;4932628;29;20206;-66
2023/04/23 09:22:00;;;;;;;0.80;0.80;;;19.20;99.90;;;;;;4931749;29;20306;-66
2023/04/23 09:24:29;;;;;;;0.77;0.77;;;19.30;99.90;;;;;;4929476;29;20230;-67
2023/04/23 09:26:58;;;;;;;1.30;1.23;;;19.50;99.90;;;;;;4929272;29;20301;-66
2023/04/23 09:29:25;;;;;;;2.50;1.33;;;19.70;99.90;;;;;;4930187;29;20313;-65
2023/04/23 09:31:54;;;;;;;1.20;1.20;;;20.10;99.90;;;;;;4932147;29;20217;-66
2023/04/23 09:34:23;;;;;;;1.50;1.30;;;20.80;99.90;;;;;;4925673;29;20198;-66
2023/04/23 09:36:51;;;;;;;0.60;0.60;;;21.20;99.90;;;;;;4930647;29;20727;-64
2023/04/23 09:39:22;;;;;;;1.00;1.00;;;21.40;99.90;;;;;;4933224;29;20206;-64
2023/04/23 09:41:51;;;;;;;1.43;1.40;;;21.70;99.90;;;;;;4931547;29;20222;-67
2023/04/23 09:44:19;;;;;;;1.40;1.40;;;23.00;99.90;;;;;;4931141;29;20317;-68
2023/04/23 09:46:46;;;;;;;1.23;0.97;;;23.30;99.90;;;;;;4933001;29;20214;-69
2023/04/23 09:49:13;;;;;;;1.20;1.20;;;23.50;99.90;;;;;;4931729;29;20217;-67
2023/04/23 09:51:42;;;;;;;1.80;1.70;;;23.80;99.90;;;;;;4932219;29;20233;-67
2023/04/23 09:54:14;;;;;;;0.80;0.80;;;23.70;99.90;;;;;;4932615;29;20198;-67
2023/04/23 09:56:43;;;;;;;0.90;0.90;;;23.20;99.90;;;;;;4932835;29;20293;-66
2023/04/23 09:59:23;;;;;;;0.73;0.73;;;23.70;99.90;;;;;;4930828;29;20198;-66
2023/04/23 10:01:51;;;;;;;1.00;0.97;;;23.50;99.90;;;;;;4933442;29;20226;-68
2023/04/23 10:04:21;;;;;;;1.23;0.90;;;22.70;99.90;;;;;;4933691;29;20233;-68
2023/04/23 10:06:53;;;;;;;1.13;1.03;;;22.70;99.90;;;;;;4927161;29;20202;-67
2023/04/23 10:09:23;;;;;;;0.70;0.70;;;23.00;99.90;;;;;;4932387;29;20202;-63
2023/04/23 10:11:53;;;;;;;1.37;0.63;;;23.20;99.90;;;;;;4933442;29;20233;-64
2023/04/23 10:14:21;;;;;;;0.83;0.83;;;23.20;99.90;;;;;;4932951;29;20206;-66
2023/04/23 10:16:51;;;;;;;1.23;0.80;;;23.30;99.90;;;;;;4933117;29;20213;-64
2023/04/23 10:19:22;;;;;;;0.87;0.87;;;23.40;99.90;;;;;;4929775;29;20202;-65
2023/04/23 10:21:53;;;;;;;0.70;0.70;;;22.90;99.90;;;;;;4932728;29;20313;-65
2023/04/23 10:24:23;;;;;;;0.63;0.63;;;23.00;99.90;;;;;;4929627;29;20774;-64
2023/04/23 10:26:56;;;;;;;0.87;0.87;;;23.00;99.90;;;;;;4939400;29;20586;-64
2023/04/23 10:29:27;;;;;;;0.50;0.50;;;23.30;99.90;;;;;;4934588;29;20707;-60
2023/04/23 10:31:55;;;;;;;1.60;1.03;;;23.40;99.90;;;;;;4932420;29;20300;-61
2023/04/23 10:34:24;;;;;;;0.80;0.80;;;24.10;99.90;;;;;;4923581;29;20198;-60
2023/04/23 10:36:52;;;;;;;0.50;0.50;;;24.40;99.90;;;;;;4931475;29;20624;-60
2023/04/23 10:39:20;;;;;;;0.97;0.97;;;24.10;99.90;;;;;;4932950;29;20261;-60
2023/04/23 10:41:49;;;;;;;0.40;0.40;;;23.90;99.90;;;;;;4933188;29;20795;-60
2023/04/23 10:44:17;;;;;;;0.97;0.50;;;23.80;99.90;;;;;;4929873;29;20232;-60
2023/04/23 10:47:03;;;;;;;0.50;0.50;;;23.40;99.90;;;;;;4933028;29;20257;-60
2023/04/23 10:49:31;;;;;;;0.93;0.40;;;23.20;99.90;;;;;;4931601;29;20308;-63
2023/04/23 10:52:00;;;;;;;0.90;0.40;;;22.50;99.90;;;;;;4924017;29;20285;-65
2023/04/23 10:54:31;;;;;;;0.87;0.50;;;21.90;99.90;;;;;;4936375;29;20293;-60
2023/04/23 10:57:01;;;;;;;0.87;0.70;;;21.00;99.90;;;;;;4938702;29;20635;-60
2023/04/23 10:59:31;;;;;;;2.83;0.40;;;21.00;99.90;;;;;;4937214;29;20738;-59
2023/04/23 11:02:05;;;;;;;0.60;0.60;;;21.00;99.90;;;;;;4927957;29;20276;-62
2023/04/23 11:04:34;;;;;;;0.60;0.50;;;20.90;99.90;;;;;;4939038;29;20304;-63
2023/04/23 11:07:06;;;;;;;0.40;0.40;;;20.80;99.90;;;;;;4929304;29;20214;-60
2023/04/23 11:09:38;;;;;;;0.97;0.30;;;20.10;99.90;;;;;;4937458;29;20547;-57
2023/04/23 11:12:10;;;;;;;0.30;0.30;;;19.70;99.90;;;;;;4938767;29;20403;-59
2023/04/23 11:14:46;;;;;;;0.67;0.40;;;19.70;99.90;;;;;;4938452;29;20201;-59
2023/04/23 11:17:14;;;;;;;1.10;1.00;;;19.20;99.90;;;;;;4939029;29;20268;-59
2023/04/23 11:19:42;;;;;;;0.33;0.33;;;19.10;99.90;;;;;;4939256;29;20277;-63
2023/04/23 11:22:15;;;;;;;0.50;0.50;;;19.00;99.90;;;;;;4936931;29;20226;-61
2023/04/23 11:24:44;;;;;;;0.40;0.40;;;19.00;99.90;;;;;;4938473;29;20218;-63
2023/04/23 11:27:13;;;;;;;0.30;0.30;;;18.90;99.90;;;;;;4937022;29;20264;-63
2023/04/23 11:29:42;;;;;;;0.40;0.40;;;18.80;99.90;;;;;;4939032;29;20222;-65
2023/04/23 11:32:11;;;;;;;1.03;0.50;;;18.50;99.90;;;;;;4938854;29;20226;-61
2023/04/23 11:34:40;;;;;;;0.40;0.40;;;18.70;99.90;;;;;;4935663;29;20194;-64
2023/04/23 11:37:10;;;;;;;0.80;0.70;;;19.00;99.90;;;;;;4938909;29;20205;-65
2023/04/23 11:39:39;;;;;;;0.43;0.43;;;19.40;99.90;;;;;;4929106;29;20624;-65
2023/04/23 11:42:10;;;;;;;0.87;0.50;;;19.10;99.90;;;;;;4938584;29;20707;-65
2023/04/23 11:44:38;;;;;;;2.03;1.43;;;19.20;99.90;;;;;;4936624;29;20218;-65
2023/04/23 11:47:09;;;;;;;0.40;0.40;;;19.50;99.90;;;;;;4942047;29;20237;-65
2023/04/23 11:49:37;;;;;;;0.80;0.80;;;19.80;99.90;;;;;;4938703;29;20216;-66
2023/04/23 11:52:05;;;;;;;1.37;1.00;;;19.80;99.90;;;;;;4938894;29;20316;-68
2023/04/23 11:54:32;;;;;;;1.10;1.10;;;19.60;99.90;;;;;;4935124;29;20245;-67
2023/04/23 11:56:59;;;;;;;0.60;0.50;;;19.40;99.90;;;;;;4938617;29;20253;-63
2023/04/23 11:59:26;;;;;;;0.63;0.60;;;19.50;99.90;;;;;;4938764;29;20209;-63
2023/04/23 12:01:55;;;;;;;0.57;0.57;;;19.60;99.90;;;;;;4936530;29;20221;-64
2023/04/23 12:04:25;;;;;;;0.83;0.70;;;19.60;99.90;;;;;;4937273;29;20217;-62
2023/04/23 12:06:54;;;;;;;0.70;0.70;;;19.40;99.90;;;;;;4930837;29;20675;-66
2023/04/23 12:09:23;;;;;;;0.50;0.50;;;19.50;99.90;;;;;;4935087;29;20203;-65
2023/04/23 12:11:50;;;;;;;0.60;0.60;;;19.70;99.90;;;;;;4930619;29;20292;-66
2023/04/23 12:14:22;;;;;;;0.60;0.60;;;19.70;99.90;;;;;;4933593;29;20248;-67
2023/04/23 12:16:51;;;;;;;0.70;0.70;;;19.60;99.90;;;;;;4935737;29;20286;-67
2023/04/23 12:19:19;;;;;;;0.50;0.50;;;19.50;99.90;;;;;;4935863;29;20560;-65
2023/04/23 12:21:55;;;;;;;0.93;0.70;;;19.10;99.90;;;;;;4935722;29;20300;-64
2023/04/23 12:24:23;;;;;;;0.60;0.60;;;19.20;99.90;;;;;;4935876;29;20284;-66
2023/04/23 12:26:53;;;;;;;1.27;0.60;;;19.20;99.90;;;;;;4932723;29;20201;-66
2023/04/23 12:29:20;;;;;;;1.47;1.27;;;18.90;99.90;;;;;;4934878;29;20232;-65
2023/04/23 12:31:48;;;;;;;0.80;0.80;;;18.70;99.90;;;;;;4935359;29;20242;-65
2023/04/23 12:34:16;;;;;;;1.03;0.93;;;18.50;99.90;;;;;;4934315;29;20206;-66
2023/04/23 12:36:46;;;;;;;0.73;0.60;;;18.50;99.90;;;;;;4935460;29;20202;-66
2023/04/23 12:39:26;;;;;;;0.70;0.70;;;18.70;99.90;;;;;;4935577;29;20205;-66
2023/04/23 12:41:55;;;;;;;2.37;0.97;;;19.00;99.90;;;;;;4930368;29;20221;-66
2023/04/23 12:44:22;;;;;;;1.33;0.90;;;19.30;99.90;;;;;;4934856;29;20198;-66
2023/04/23 12:47:02;;;;;;;1.43;0.87;;;19.40;99.90;;;;;;4934990;29;20217;-66
2023/04/23 12:49:29;;;;;;;2.67;1.40;;;19.60;99.90;;;;;;4935224;29;20201;-66